createdAt,value
2016-04-26T00:02:35.849Z,995.06
2016-04-26T00:05:45.471Z,994.86
2016-04-26T00:08:57.322Z,994.84
2016-04-26T00:12:11.580Z,994.88
2016-04-26T00:15:18.651Z,994.8
2016-04-26T00:18:21.597Z,994.63
2016-04-26T00:21:33.482Z,994.65
2016-04-26T00:24:42.631Z,994.57
2016-04-26T00:27:54.280Z,994.61
2016-04-26T00:31:03.725Z,994.61
2016-04-26T00:34:19.343Z,994.49
2016-04-26T00:37:22.319Z,994.49
2016-04-26T00:40:34.190Z,994.35
2016-04-26T00:43:45.931Z,994.29
2016-04-26T00:46:57.689Z,994.13
2016-04-26T00:50:13.213Z,994.19
2016-04-26T00:53:20.003Z,994.23
2016-04-26T00:56:22.933Z,994.27
2016-04-26T00:59:34.553Z,994.27
2016-04-26T01:02:46.529Z,994.15
2016-04-26T01:05:58.538Z,994.19
2016-04-26T01:09:14.499Z,994.11
2016-04-26T01:12:17.460Z,994.15
2016-04-26T01:15:29.109Z,994.19
2016-04-26T01:18:41.011Z,994.03
2016-04-26T01:21:52.799Z,994.03
2016-04-26T01:25:01.167Z,994.05
2016-04-26T01:28:16.925Z,993.91
2016-04-26T01:31:19.511Z,993.91
2016-04-26T01:34:31.801Z,993.75
2016-04-26T01:37:43.562Z,993.83
2016-04-26T01:40:55.491Z,993.77
2016-04-26T01:44:07.468Z,993.81
2016-04-26T01:47:20.227Z,993.67
2016-04-26T01:50:31.406Z,993.73
2016-04-26T01:53:43.511Z,993.75
2016-04-26T01:56:55.550Z,993.71
2016-04-26T02:00:05.542Z,993.59
2016-04-26T02:03:21.379Z,993.49
2016-04-26T02:06:24.277Z,993.53
2016-04-26T02:09:36.145Z,993.53
2016-04-26T02:12:47.827Z,993.45
2016-04-26T02:15:59.164Z,993.41
2016-04-26T02:19:14.609Z,993.41
2016-04-26T02:22:21.445Z,993.41
2016-04-26T02:25:24.289Z,993.39
2016-04-26T02:28:36.344Z,993.43
2016-04-26T02:31:48.105Z,993.35
2016-04-26T02:34:58.831Z,993.35
2016-04-26T02:38:15.604Z,993.33
2016-04-26T02:41:18.660Z,993.35
2016-04-26T02:44:30.590Z,993.22
2016-04-26T02:47:42.976Z,993.27
2016-04-26T02:50:54.561Z,993.18
2016-04-26T02:54:06.272Z,993.18
2016-04-26T02:57:17.750Z,993.14
2016-04-26T03:00:29.727Z,993.14
2016-04-26T03:03:41.785Z,993.18
2016-04-26T03:06:53.823Z,993.12
2016-04-26T03:10:05.722Z,993.06
2016-04-26T03:13:21.403Z,993.04
2016-04-26T03:16:24.378Z,993.04
2016-04-26T03:19:36.373Z,992.95
2016-04-26T03:22:48.289Z,992.89
2016-04-26T03:26:00.157Z,992.93
2016-04-26T03:29:15.806Z,992.86
2016-04-26T03:32:18.861Z,992.91
2016-04-26T03:35:28.025Z,992.86
2016-04-26T03:38:39.908Z,992.95
2016-04-26T03:41:51.841Z,992.86
2016-04-26T03:45:03.973Z,992.91
2016-04-26T03:48:19.684Z,992.89
2016-04-26T03:51:22.709Z,992.86
2016-04-26T03:54:34.779Z,992.76
2016-04-26T03:57:46.961Z,992.72
2016-04-26T04:00:58.907Z,992.76
2016-04-26T04:04:14.852Z,992.78
2016-04-26T04:07:21.861Z,992.76
2016-04-26T04:10:24.707Z,992.74
2016-04-26T04:13:36.512Z,992.72
2016-04-26T04:16:48.304Z,992.7
2016-04-26T04:20:00.156Z,992.74
2016-04-26T04:23:16.101Z,992.7
2016-04-26T04:26:19.187Z,992.84
2016-04-26T04:29:31.133Z,992.72
2016-04-26T04:32:41.454Z,992.88
2016-04-26T04:35:52.168Z,992.72
2016-04-26T04:39:00.879Z,992.62
2016-04-26T04:42:17.996Z,992.72
2016-04-26T04:45:19.957Z,992.82
2016-04-26T04:48:29.340Z,992.8
2016-04-26T04:51:41.411Z,992.8
2016-04-26T04:54:51.656Z,992.76
2016-04-26T04:58:03.383Z,992.62
2016-04-26T05:01:16.141Z,992.54
2016-04-26T05:04:19.211Z,992.48
2016-04-26T05:07:31.048Z,992.44
2016-04-26T05:10:42.994Z,992.38
2016-04-26T05:13:51.707Z,992.44
2016-04-26T05:17:03.887Z,992.46
2016-04-26T05:20:19.927Z,992.62
2016-04-26T05:23:23.028Z,992.62
2016-04-26T05:26:35.005Z,992.66
2016-04-26T05:29:47.203Z,992.68
2016-04-26T05:32:57.321Z,992.58
2016-04-26T05:36:12.532Z,992.7
2016-04-26T05:39:19.633Z,992.82
2016-04-26T05:42:22.751Z,992.76
2016-04-26T05:45:34.884Z,992.8
2016-04-26T05:48:45.548Z,992.86
2016-04-26T05:51:57.653Z,992.82
2016-04-26T05:55:14.005Z,992.8
2016-04-26T05:58:20.990Z,992.76
2016-04-26T06:01:24.551Z,992.76
2016-04-26T06:04:35.407Z,992.78
2016-04-26T06:07:47.541Z,992.8
2016-04-26T06:10:59.566Z,992.84
2016-04-26T06:14:15.465Z,992.78
2016-04-26T06:17:18.974Z,992.78
2016-04-26T06:20:30.715Z,992.86
2016-04-26T06:23:40.430Z,992.88
2016-04-26T06:26:52.643Z,992.86
2016-04-26T06:30:04.840Z,992.84
2016-04-26T06:33:20.988Z,992.91
2016-04-26T06:36:24.184Z,993.08
2016-04-26T06:39:36.035Z,992.97
2016-04-26T06:42:47.918Z,993.04
2016-04-26T06:46:00.086Z,993.14
2016-04-26T06:49:16.171Z,993.04
2016-04-26T06:52:19.398Z,992.97
2016-04-26T06:55:31.547Z,993.04
2016-04-26T06:58:43.742Z,993.04
2016-04-26T07:01:55.972Z,993.1
2016-04-26T07:05:07.871Z,993.1
2016-04-26T07:08:19.832Z,993.1
2016-04-26T07:11:32.012Z,992.97
2016-04-26T07:14:44.145Z,992.91
2016-04-26T07:17:56.484Z,992.99
2016-04-26T07:21:12.492Z,992.95
2016-04-26T07:24:19.567Z,993.04
2016-04-26T07:27:22.654Z,992.97
2016-04-26T07:30:34.724Z,993.1
2016-04-26T07:33:46.857Z,993.1
2016-04-26T07:36:58.883Z,993.08
2016-04-26T07:40:14.861Z,993.14
2016-04-26T07:43:21.853Z,993.22
2016-04-26T07:46:24.907Z,993.24
2016-04-26T07:49:36.807Z,993.24
2016-04-26T07:52:48.987Z,993.26
2016-04-26T07:56:01.153Z,993.37
2016-04-26T07:59:17.302Z,993.27
2016-04-26T08:02:20.497Z,993.33
2016-04-26T08:05:32.443Z,993.39
2016-04-26T08:08:42.576Z,993.43
2016-04-26T08:11:54.181Z,993.47
2016-04-26T08:15:06.236Z,993.33
2016-04-26T08:18:23.400Z,993.29
2016-04-26T08:21:25.299Z,993.33
2016-04-26T08:24:37.260Z,993.35
2016-04-26T08:27:49.284Z,993.49
2016-04-26T08:31:00.861Z,993.51
2016-04-26T08:34:17.105Z,993.49
2016-04-26T08:37:20.339Z,993.55
2016-04-26T08:40:30.078Z,993.57
2016-04-26T08:43:42.009Z,993.61
2016-04-26T08:46:54.080Z,993.65
2016-04-26T08:50:06.111Z,993.61
2016-04-26T08:53:22.199Z,993.59
2016-04-26T08:56:25.334Z,993.47
2016-04-26T08:59:37.391Z,993.55
2016-04-26T09:02:49.242Z,993.45
2016-04-26T09:06:01.332Z,993.49
2016-04-26T09:09:17.558Z,993.45
2016-04-26T09:12:20.801Z,993.47
2016-04-26T09:15:32.996Z,993.45
2016-04-26T09:18:45.458Z,993.39
2016-04-26T09:21:58.094Z,992.7
2016-04-26T09:25:14.711Z,992.6
2016-04-26T09:28:22.891Z,992.14
2016-04-26T09:31:27.289Z,992.82
2016-04-26T09:34:40.344Z,992.93
2016-04-26T09:37:52.899Z,992.99
2016-04-26T09:41:05.801Z,992
2016-04-26T09:44:19.559Z,992.72
2016-04-26T09:47:23.519Z,992.93
2016-04-26T09:50:36.012Z,993.08
2016-04-26T09:53:48.005Z,992.99
2016-04-26T09:57:00.405Z,993.24
2016-04-26T10:00:15.071Z,993.51
2016-04-26T10:03:22.563Z,993.53
2016-04-26T10:06:25.055Z,993.29
2016-04-26T10:09:37.595Z,993.2
2016-04-26T10:12:50.165Z,993.29
2016-04-26T10:16:02.800Z,993.45
2016-04-26T10:19:19.622Z,993.55
2016-04-26T10:22:22.472Z,993.49
2016-04-26T10:25:34.887Z,993.49
2016-04-26T10:28:47.193Z,993.57
2016-04-26T10:31:59.561Z,993.59
2016-04-26T10:35:16.087Z,993.65
2016-04-26T10:38:19.500Z,993.55
2016-04-26T10:41:32.212Z,993.45
2016-04-26T10:44:44.439Z,993.41
2016-04-26T10:47:56.994Z,993.37
2016-04-26T10:51:13.520Z,993.41
2016-04-26T10:54:21.075Z,993.43
2016-04-26T10:57:25.005Z,993.31
2016-04-26T11:00:37.575Z,993.31
2016-04-26T11:03:50.116Z,993.31
2016-04-26T11:07:02.639Z,993.33
2016-04-26T11:10:18.931Z,993.47
2016-04-26T11:13:22.549Z,993.41
2016-04-26T11:16:35.118Z,993.41
2016-04-26T11:19:47.548Z,993.37
2016-04-26T11:22:58.822Z,993.35
2016-04-26T11:26:15.599Z,993.27
2016-04-26T11:29:19.451Z,993.39
2016-04-26T11:32:32.005Z,993.45
2016-04-26T11:35:44.670Z,993.43
2016-04-26T11:38:57.350Z,993.45
2016-04-26T11:42:14.032Z,993.39
2016-04-26T11:45:22.213Z,993.45
2016-04-26T11:48:26.034Z,993.33
2016-04-26T11:51:35.244Z,993.33
2016-04-26T11:54:47.690Z,993.39
2016-04-26T11:58:00.447Z,993.31
2016-04-26T12:01:17.052Z,993.35
2016-04-26T12:04:20.935Z,993.31
2016-04-26T12:07:33.741Z,993.16
2016-04-26T12:10:46.592Z,993.33
2016-04-26T12:13:59.303Z,993.27
2016-04-26T12:17:15.705Z,993.2
2016-04-26T12:20:19.415Z,993.24
2016-04-26T12:23:32.158Z,993.22
2016-04-26T12:26:44.650Z,993.22
2016-04-26T12:29:57.331Z,993.27
2016-04-26T12:33:07.386Z,993.24
2016-04-26T12:36:20.209Z,993.29
2016-04-26T12:39:32.686Z,993.12
2016-04-26T12:42:45.288Z,993.08
2016-04-26T12:45:57.748Z,993.2
2016-04-26T12:49:14.712Z,993.18
2016-04-26T12:52:22.299Z,993.14
2016-04-26T12:55:26.010Z,993.14
2016-04-26T12:58:38.628Z,993.14
2016-04-26T13:01:51.370Z,993.08
2016-04-26T13:05:03.972Z,992.97
2016-04-26T13:08:20.607Z,992.93
2016-04-26T13:11:24.443Z,992.91
2016-04-26T13:14:37.420Z,992.93
2016-04-26T13:17:49.777Z,993.04
2016-04-26T13:21:02.379Z,992.95
2016-04-26T13:24:16.625Z,992.89
2016-04-26T13:27:20.367Z,992.88
2016-04-26T13:30:32.359Z,992.82
2016-04-26T13:33:45.211Z,992.82
2016-04-26T13:36:57.720Z,992.93
2016-04-26T13:40:14.306Z,992.99
2016-04-26T13:43:22.113Z,992.88
2016-04-26T13:46:25.902Z,992.89
2016-04-26T13:49:39.613Z,992.84
2016-04-26T13:52:51.091Z,992.88
2016-04-26T13:56:03.787Z,992.88
2016-04-26T13:59:20.325Z,992.99
2016-04-26T14:02:23.977Z,992.89
2016-04-26T14:05:36.672Z,992.88
2016-04-26T14:08:49.399Z,992.89
2016-04-26T14:12:01.469Z,992.91
2016-04-26T14:15:18.087Z,992.93
2016-04-26T14:18:21.829Z,992.93
2016-04-26T14:21:32.106Z,992.86
2016-04-26T14:24:44.495Z,992.88
2016-04-26T14:27:57.143Z,992.82
2016-04-26T14:31:13.853Z,992.82
2016-04-26T14:34:21.596Z,992.82
2016-04-26T14:37:25.292Z,992.82
2016-04-26T14:40:37.756Z,992.8
2016-04-26T14:43:50.857Z,992.89
2016-04-26T14:47:01.678Z,992.78
2016-04-26T14:50:18.999Z,992.8
2016-04-26T14:53:22.100Z,992.7
2016-04-26T14:56:34.720Z,992.78
2016-04-26T14:59:47.245Z,992.74
2016-04-26T15:02:58.783Z,992.7
2016-04-26T15:06:16.464Z,992.8
2016-04-26T15:09:19.175Z,992.86
2016-04-26T15:12:32.670Z,992.97
2016-04-26T15:15:45.396Z,992.91
2016-04-26T15:18:58.030Z,992.97
2016-04-26T15:22:14.681Z,993.06
2016-04-26T15:25:22.426Z,992.97
2016-04-26T15:28:26.153Z,992.95
2016-04-26T15:31:41.070Z,993.06
2016-04-26T15:34:51.594Z,993.08
2016-04-26T15:38:04.336Z,993.04
2016-04-26T15:41:20.891Z,992.99
2016-04-26T15:44:24.727Z,993.04
2016-04-26T15:47:37.160Z,993.1
2016-04-26T15:50:49.590Z,993.1
2016-04-26T15:54:00.879Z,993.08
2016-04-26T15:57:17.496Z,993.12
2016-04-26T16:00:21.317Z,993.18
2016-04-26T16:03:33.640Z,993.53
2016-04-26T16:06:46.273Z,993.61
2016-04-26T16:09:58.813Z,993.77
2016-04-26T16:13:14.743Z,993.93
2016-04-26T16:16:22.219Z,993.93
2016-04-26T16:19:25.837Z,993.87
2016-04-26T16:22:38.457Z,993.83
2016-04-26T16:25:50.965Z,993.79
2016-04-26T16:29:03.348Z,993.71
2016-04-26T16:32:19.841Z,993.61
2016-04-26T16:35:23.692Z,993.71
2016-04-26T16:38:35.938Z,993.69
2016-04-26T16:41:48.336Z,993.69
2016-04-26T16:45:00.625Z,993.67
2016-04-26T16:48:16.727Z,993.71
2016-04-26T16:51:20.376Z,993.65
2016-04-26T16:54:32.557Z,993.79
2016-04-26T16:57:44.770Z,993.73
2016-04-26T17:00:57.075Z,993.69
2016-04-26T17:04:10.223Z,993.77
2016-04-26T17:07:21.856Z,993.81
2016-04-26T17:10:33.930Z,993.97
2016-04-26T17:13:46.307Z,993.99
2016-04-26T17:16:56.268Z,993.93
2016-04-26T17:20:08.542Z,993.93
2016-04-26T17:23:20.832Z,993.99
2016-04-26T17:26:33.230Z,994.03
2016-04-26T17:29:45.725Z,994.15
2016-04-26T17:32:57.968Z,994.41
2016-04-26T17:36:14.319Z,994.33
2016-04-26T17:39:21.967Z,994.33
2016-04-26T17:42:25.550Z,994.29
2016-04-26T17:45:37.917Z,994.55
2016-04-26T17:48:50.290Z,994.61
2016-04-26T17:52:02.608Z,994.23
2016-04-26T17:55:18.654Z,994.21
2016-04-26T17:58:22.134Z,994.13
2016-04-26T18:01:34.535Z,994.17
2016-04-26T18:04:43.687Z,994.15
2016-04-26T18:07:56.101Z,994.25
2016-04-26T18:11:08.109Z,994.23
2016-04-26T18:14:20.351Z,994.33
2016-04-26T18:17:32.531Z,994.25
2016-04-26T18:20:42.011Z,994.31
2016-04-26T18:23:54.425Z,994.33
2016-04-26T18:27:06.699Z,994.63
2016-04-26T18:30:22.004Z,994.96
2016-04-26T18:33:25.637Z,995.36
2016-04-26T18:36:38.617Z,995.42
2016-04-26T18:39:50.250Z,995.5
2016-04-26T18:43:01.196Z,995.36
2016-04-26T18:46:17.204Z,995.22
2016-04-26T18:49:24.383Z,995.36
2016-04-26T18:52:27.735Z,995.34
2016-04-26T18:55:39.994Z,995.32
2016-04-26T18:58:52.129Z,995.02
2016-04-26T19:02:04.605Z,994.98
2016-04-26T19:05:21.004Z,994.98
2016-04-26T19:08:24.262Z,995.06
2016-04-26T19:11:36.396Z,995.12
2016-04-26T19:14:45.279Z,995.1
2016-04-26T19:17:57.556Z,995.16
2016-04-26T19:21:09.360Z,995.18
2016-04-26T19:24:25.305Z,995.08
2016-04-26T19:27:28.627Z,995.12
2016-04-26T19:30:40.666Z,995.04
2016-04-26T19:33:53.161Z,995.06
2016-04-26T19:37:05.513Z,994.94
2016-04-26T19:40:21.708Z,994.96
2016-04-26T19:43:25.029Z,994.84
2016-04-26T19:46:37.334Z,994.76
2016-04-26T19:49:49.467Z,994.68
2016-04-26T19:52:59.400Z,994.72
2016-04-26T19:56:11.408Z,994.65
2016-04-26T19:59:22.884Z,994.65
2016-04-26T20:02:35.127Z,994.59
2016-04-26T20:05:47.166Z,994.55
2016-04-26T20:08:59.458Z,994.55
2016-04-26T20:12:11.701Z,994.57
2016-04-26T20:15:27.632Z,994.55
2016-04-26T20:18:30.904Z,994.59
2016-04-26T20:21:42.898Z,994.53
2016-04-26T20:24:54.967Z,994.51
2016-04-26T20:28:06.978Z,994.51
2016-04-26T20:31:23.611Z,994.41
2016-04-26T20:34:26.900Z,994.37
2016-04-26T20:37:38.799Z,994.37
2016-04-26T20:40:51.074Z,994.33
2016-04-26T20:44:02.990Z,994.19
2016-04-26T20:47:18.638Z,994.27
2016-04-26T20:50:25.772Z,994.13
2016-04-26T20:53:28.952Z,994.27
2016-04-26T20:56:41.147Z,994.07
2016-04-26T20:59:53.515Z,994.17
2016-04-26T21:03:05.636Z,994.03
2016-04-26T21:06:21.643Z,994.07
2016-04-26T21:09:24.823Z,994.03
2016-04-26T21:12:35.863Z,994.09
2016-04-26T21:15:48.058Z,994.03
2016-04-26T21:19:00.004Z,994.03
2016-04-26T21:22:10.812Z,993.91
2016-04-26T21:25:26.679Z,994.01
2016-04-26T21:28:29.718Z,994.03
2016-04-26T21:31:41.679Z,994.01
2016-04-26T21:34:51.562Z,993.93
2016-04-26T21:38:02.602Z,993.99
2016-04-26T21:41:15.191Z,994.03
2016-04-26T21:44:27.167Z,994.03
2016-04-26T21:47:37.175Z,993.97
2016-04-26T21:50:49.137Z,993.93
2016-04-26T21:54:01.426Z,993.99
2016-04-26T21:57:13.656Z,993.99
2016-04-26T22:00:29.570Z,993.89
2016-04-26T22:03:32.797Z,993.95
2016-04-26T22:06:45.008Z,993.91
2016-04-26T22:09:57.313Z,993.89
2016-04-26T22:13:08.402Z,993.85
2016-04-26T22:16:25.597Z,993.81
2016-04-26T22:19:32.777Z,993.83
2016-04-26T22:22:35.988Z,993.83
2016-04-26T22:25:48.137Z,993.83
2016-04-26T22:29:00.129Z,993.85
2016-04-26T22:32:12.390Z,993.79
2016-04-26T22:35:22.539Z,993.83
2016-04-26T22:38:35.750Z,993.87
2016-04-26T22:41:40.883Z,993.83
2016-04-26T22:44:51.063Z,993.83
2016-04-26T22:48:02.415Z,993.77
2016-04-26T22:51:14.472Z,993.91
2016-04-26T22:54:23.027Z,993.81
2016-04-26T22:57:36.613Z,993.79
2016-04-26T23:00:39.746Z,993.75
2016-04-26T23:03:52.020Z,993.85
2016-04-26T23:07:04.138Z,993.85
2016-04-26T23:10:15.617Z,993.81
2016-04-26T23:13:29.250Z,993.85
2016-04-26T23:16:36.369Z,993.87
2016-04-26T23:19:39.426Z,993.89
2016-04-26T23:22:51.247Z,993.87
2016-04-26T23:26:03.396Z,993.85
2016-04-26T23:29:15.563Z,993.83
2016-04-26T23:32:31.453Z,993.81
2016-04-26T23:35:38.882Z,993.83
2016-04-26T23:38:41.751Z,993.81
2016-04-26T23:41:53.728Z,993.79
2016-04-26T23:45:05.938Z,993.79
2016-04-26T23:48:15.309Z,993.91
2016-04-26T23:51:23.786Z,993.89
2016-04-26T23:54:35.824Z,993.83
2016-04-26T23:57:47.879Z,993.77
